• Join FlightAware (Why Join?)
  • Login
  • US Flag 
01:30AM EDT


 

Airport Tracker/Info


-or-


 

Live Flight TrackerFlight Track Log ✈ AAL1653 ✈ 11-Jun-2013 ✈ KRDU - KORD

Flight Track Log - Related Links

Times and Time Zones

All times are in EDT time to prevent confusion due to time zone crossing. See the AAL1653 flight status page for this flight to view local times or setup timezone preferences in your user account.

Time Position Orientation Groundspeed Altitude Reporting Facility
EDT Latitude Longitude Course Direction KTS MPH feet Rate Location/Type
02:20PM 35.8667 -78.8114 270° West 166 191 1,500  Level Washington Center
02:21PM 35.8383 -78.8536 230° Southwest 201 231 2,900 2,160 Climbing Washington Center
02:22PM 35.8433 -79.1453 265° West  Level FlightAware Approximate
02:22PM 35.8400 -78.9433 271° West 268 308 5,700  Level Washington Center
02:23PM 35.8345 -79.2666 265° West  Level FlightAware Approximate
02:23PM 35.8375 -79.0306 268° West 282 325 7,600  Level Washington Center
02:24PM 35.8236 -79.3875 262° West  Level FlightAware Approximate
02:24PM 35.8386 -79.1331 271° West 275 316 10,500  Level Washington Center
02:25PM 35.8167 -79.5087 270° West  Level FlightAware Approximate
02:25PM 35.8378 -79.2303 269° West 298 343 12,200  Level Washington Center
02:27PM 35.8200 -79.5008 265° West 367 422 17,600 2,460 Climbing Atlanta Center
02:29PM 35.7786 -79.7436 258° West 377 434 21,800 1,860 Climbing Atlanta Center
02:30PM 35.7561 -79.8778 258° West 391 450 23,200 1,560 Climbing Atlanta Center
02:31PM 35.7317 -80.0172 258° West 405 466 25,000 1,680 Climbing Atlanta Center
02:32PM 35.7092 -80.1642 259° West 422 486 26,600 1,620 Climbing Atlanta Center
02:33PM 35.7597 -80.3075 294° West 402 463 28,300 1,620 Climbing Atlanta Center
02:34PM 35.8094 -80.4358 296° West 408 470 29,900 1,500 Climbing Atlanta Center
02:35PM 35.8567 -80.5619 295° West 408 470 31,400 1,260 Climbing Atlanta Center
02:36PM 35.9039 -80.6856 295° West 408 470 32,500 1,020 Climbing Atlanta Center
02:37PM 35.9467 -80.8017 294° West 408 470 33,500 900 Climbing Atlanta Center
02:38PM 35.9958 -80.9308 295° West 413 475 34,400 720 Climbing Atlanta Center
02:39PM 36.0450 -81.0572 296° West 413 475 35,000 480 Climbing Atlanta Center
02:40PM 36.0917 -81.1789 295° West 408 470 35,400 420 Climbing Atlanta Center
02:41PM 36.1364 -81.3058 294° West 408 470 35,900 300 Climbing Atlanta Center
02:42PM 36.1828 -81.4328 294° West 408 470 36,000  Climbing Atlanta Center
02:43PM 36.2292 -81.5600 294° West 408 470 36,000  Level Atlanta Center
02:44PM 36.2733 -81.6822 294° West 403 464 36,000  Level Atlanta Center
02:45PM 36.3217 -81.8097 295° West 403 464 36,000  Level Atlanta Center
02:47PM 36.4092 -82.0544 294° West 413 475 36,000  Level Indianapolis Center
02:48PM 36.4747 -82.1628 307° West 403 464 36,000  Level Indianapolis Center
02:49PM 36.5742 -82.2606 322° Northwest 392 451 36,000  Level Indianapolis Center
02:50PM 36.6592 -82.3422 322° Northwest 387 445 36,000  Level Indianapolis Center
02:51PM 36.7450 -82.4236 323° Northwest 387 445 36,000  Level Indianapolis Center
02:52PM 36.8311 -82.5056 323° Northwest 391 450 36,000  Level Indianapolis Center
02:53PM 36.9150 -82.5869 322° Northwest 386 444 36,000  Level Indianapolis Center
02:54PM 37.0144 -82.6806 323° Northwest 387 445 36,000  Level Indianapolis Center
02:55PM 37.0981 -82.7622 322° Northwest 385 443 36,000  Level Indianapolis Center
02:56PM 37.1831 -82.8458 322° Northwest 392 451 36,000  Level Indianapolis Center
02:57PM 37.2681 -82.9283 322° Northwest 389 448 36,000  Level Indianapolis Center
02:58PM 37.3661 -83.0253 322° Northwest 386 444 36,000  Level Indianapolis Center
02:59PM 37.4500 -83.1075 322° Northwest 382 440 36,000  Level Indianapolis Center
03:00PM 37.5361 -83.1914 322° Northwest 390 449 36,000  Level Indianapolis Center
03:01PM 37.6200 -83.2753 322° Northwest 387 445 36,000  Level Indianapolis Center
03:02PM 37.7042 -83.3586 322° Northwest 384 442 36,000  Level Indianapolis Center
03:04PM 37.8025 -83.4547 322° Northwest 383 441 36,000  Level Indianapolis Center
03:05PM 37.8858 -83.5381 322° Northwest 382 440 36,000  Level Indianapolis Center
03:06PM 37.9681 -83.6214 321° Northwest 377 434 36,000  Level Indianapolis Center
03:07PM 38.0514 -83.7036 322° Northwest 379 436 36,000  Level Indianapolis Center
03:08PM 38.1339 -83.7878 321° Northwest 381 438 36,000  Level Indianapolis Center
03:09PM 38.2300 -83.8844 322° Northwest 379 436 36,000  Level Indianapolis Center
03:10PM 38.3119 -83.9664 322° Northwest 373 429 36,000  Level Indianapolis Center
03:11PM 38.3944 -84.0519 321° Northwest 378 435 36,000  Level Indianapolis Center
03:12PM 38.4769 -84.1356 322° Northwest 379 436 36,000  Level Indianapolis Center
03:13PM 38.5594 -84.2194 322° Northwest 378 435 36,000  Level Indianapolis Center
03:14PM 38.6419 -84.3031 322° Northwest 370 426 36,000  Level Indianapolis Center
03:15PM 38.7181 -84.3889 319° Northwest 363 418 36,000  Level Indianapolis Center
03:16PM 38.8069 -84.4931 318° Northwest 365 420 36,000  Level Indianapolis Center
03:17PM 38.8800 -84.5783 318° Northwest 369 425 36,000 -60 Level Indianapolis Center
03:18PM 38.9608 -84.6722 318° Northwest 368 423 35,900  Descending Indianapolis Center
03:19PM 39.0381 -84.7611 318° Northwest 369 425 36,000  Climbing Indianapolis Center
03:20PM 39.1286 -84.8197 333° Northwest 366 421 36,000 -60 Level Indianapolis Center
03:21PM 39.2228 -84.8786 334° Northwest 371 427 35,900  Descending Indianapolis Center
03:22PM 39.3156 -84.9356 335° Northwest 366 421 36,000 -1,020 Climbing Indianapolis Center
03:23PM 39.4069 -84.9942 334° Northwest 363 418 33,900 -2,640 Descending Indianapolis Center
03:24PM 39.5239 -85.0664 335° Northwest 390 449 30,600 -2,760 Descending Indianapolis Center
03:25PM 39.6261 -85.1306 334° Northwest 400 460 28,200 -1,260 Descending Indianapolis Center
03:26PM 39.7336 -85.1972 335° Northwest 417 480 28,000 -480 Descending Indianapolis Center
03:27PM 39.8403 -85.2650 334° Northwest 421 484 27,300 -960 Descending Indianapolis Center
03:28PM 39.9469 -85.3319 334° Northwest 421 484 26,100 -660 Descending Indianapolis Center
03:29PM 40.0572 -85.4014 334° Northwest 432 497 26,000 -300 Descending Indianapolis Center
03:30PM 40.1664 -85.4708 334° Northwest 432 497 25,600 -780 Descending Indianapolis Center
03:31PM 40.2758 -85.5394 334° Northwest 431 496 24,400 -780 Descending Indianapolis Center
03:32PM 40.4003 -85.6203 334° Northwest 426 490 24,000 -300 Descending Indianapolis Center
03:33PM 40.4486 -85.6494 335° Northwest 422 486 24,000 -300 Level Chicago Center
03:34PM 40.5525 -85.7031 339° North 403 464 23,600 -900 Descending Chicago Center
03:35PM 40.6792 -85.7508 344° North 394 453 22,200 -780 Descending Chicago Center
03:36PM 40.7794 -85.7911 343° North 381 438 22,000 -120 Descending Chicago Center
03:37PM 40.8633 -85.8708 324° Northwest 380 437 22,000  Level Chicago Center
03:38PM 40.9369 -85.9689 315° West 376 433 22,000  Level Chicago Center
03:39PM 41.0100 -86.0678 314° West 376 433 22,000  Level Chicago Center
03:40PM 41.0831 -86.1675 314° West 376 433 22,000  Level Chicago Center
03:41PM 41.1567 -86.2661 315° West 377 434 22,000 -660 Level Chicago Center
03:42PM 41.2442 -86.3856 314° West 376 433 20,700 -1,260 Descending Chicago Center
03:43PM 41.3153 -86.4817 315° West 366 421 19,500 -1,020 Descending Chicago Center
03:44PM 41.3875 -86.5797 314° West 370 426 18,600 -1,620 Descending Chicago Center
03:45PM 41.4578 -86.6769 314° West 367 422 16,200 -2,400 Descending Chicago Center
03:47PM 41.5258 -86.7675 315° West 355 409 13,700 -2,040 Descending Chicago Center
03:48PM 41.6431 -86.7914 351° North 355 409 12,100 -840 Descending Chicago Center
03:49PM 41.7406 -86.8053 354° North 356 410 12,000 -60 Descending Chicago Center
03:50PM 41.8336 -86.8214 353° North 347 399 12,000  Level Chicago Center
03:51PM 41.9136 -86.8842 330° Northwest 338 389 12,000  Level Chicago Center
03:52PM 41.9617 -86.9853 303° West 325 374 12,000 -540 Level Chicago Center
03:53PM 41.9831 -87.1272 282° West 328 377 10,900 -960 Descending Chicago Center
03:54PM 41.9822 -87.2353 269° West 293 337 10,100 -1,020 Descending Chicago Center
03:55PM 41.9828 -87.3367 270° West 276 318 8,800 -1,320 Descending Chicago Center
03:56PM 41.9825 -87.4353 270° West 268 308 7,400 -1,680 Descending Chicago Center
03:57PM 41.9836 -87.5528 271° West 266 306 5,400 -1,500 Descending Chicago Center
03:58PM 41.9836 -87.6439 270° West 254 292 4,300 -1,080 Descending Chicago Center
03:59PM 41.9839 -87.7189 270° West 229 264 3,200 -1,080 Descending Chicago Center